Time;durP1;ratioP1;P1;durP2;ratioP2;P2;SDS_P1;SDS_P2;PMS_P1;PMS_P2;Temp;Humidity;BMP_temperature;BMP_pressure;BME280_temperature;BME280_humidity;BME280_pressure;Samples;Min_cycle;Max_cycle;Signal;HPM_P1;HPM_P2
2022/08/08 00:00:22;;;;;;;1.57;1.47;;;16.30;87.70;;;;;;5055113;28;20417;-83
2022/08/08 00:03:19;;;;;;;1.30;1.20;;;16.20;87.50;;;;;;5054493;28;20626;-83
2022/08/08 00:05:53;;;;;;;1.40;1.30;;;16.20;87.70;;;;;;5068080;28;20426;-83
2022/08/08 00:08:55;;;;;;;1.30;1.20;;;16.20;87.70;;;;;;5055612;28;20460;-83
2022/08/08 00:11:32;;;;;;;1.17;1.13;;;16.10;87.90;;;;;;5044644;28;20417;-83
2022/08/08 00:14:05;;;;;;;1.30;1.20;;;16.10;88.10;;;;;;5055949;28;20447;-83
2022/08/08 00:16:42;;;;;;;2.50;1.63;;;16.10;87.80;;;;;;5055289;28;20925;-83
2022/08/08 00:19:28;;;;;;;1.30;1.20;;;16.10;87.80;;;;;;5055515;28;20556;-83
2022/08/08 00:22:02;;;;;;;1.30;1.20;;;16.10;87.90;;;;;;5057585;28;20413;-83
2022/08/08 00:24:49;;;;;;;3.87;1.30;;;16.00;88.00;;;;;;5059732;28;20413;-83
2022/08/08 00:27:18;;;;;;;1.40;1.30;;;16.00;87.90;;;;;;5057725;28;20421;-84
2022/08/08 00:29:58;;;;;;;1.30;1.20;;;16.00;87.80;;;;;;5059323;28;20445;-83
2022/08/08 00:32:40;;;;;;;1.40;1.30;;;15.90;87.70;;;;;;5048290;28;20471;-83
2022/08/08 00:35:19;;;;;;;0.90;0.90;;;15.90;88.20;;;;;;5059018;28;20425;-83
2022/08/08 00:38:06;;;;;;;1.40;1.30;;;15.90;88.20;;;;;;5059417;28;20425;-83
2022/08/08 00:40:35;;;;;;;1.30;1.20;;;15.90;88.70;;;;;;5059901;28;20778;-83
2022/08/08 00:43:21;;;;;;;1.43;1.37;;;15.80;88.80;;;;;;5058588;28;20413;-84
2022/08/08 00:46:13;;;;;;;1.57;1.47;;;15.80;88.40;;;;;;5059373;28;20410;-83
2022/08/08 00:48:47;;;;;;;1.40;1.23;;;15.70;88.60;;;;;;5036953;28;21113;-83
2022/08/08 00:51:30;;;;;;;1.30;1.20;;;15.70;89.30;;;;;;5058413;28;20417;-84
2022/08/08 00:54:22;;;;;;;2.30;2.10;;;15.70;89.40;;;;;;5059142;28;20422;-83
2022/08/08 00:57:15;;;;;;;2.50;1.50;;;15.70;89.40;;;;;;5058943;28;20488;-83
2022/08/08 01:00:01;;;;;;;1.20;1.10;;;15.70;90.10;;;;;;5076494;28;20464;-83
2022/08/08 01:02:45;;;;;;;1.30;1.20;;;15.70;90.20;;;;;;5058816;28;20422;-83
2022/08/08 01:05:32;;;;;;;1.17;1.10;;;15.70;90.10;;;;;;5058755;28;20926;-83
2022/08/08 01:08:36;;;;;;;1.20;1.10;;;15.60;90.50;;;;;;5046876;28;20461;-83
2022/08/08 01:11:23;;;;;;;10.90;1.37;;;15.60;91.10;;;;;;5059481;28;20496;-83
2022/08/08 01:14:13;;;;;;;1.33;1.30;;;15.50;91.20;;;;;;5058569;28;20953;-83
2022/08/08 01:16:45;;;;;;;1.20;1.10;;;15.50;91.00;;;;;;5057734;28;20426;-83
2022/08/08 01:19:44;;;;;;;2.00;1.60;;;15.40;91.50;;;;;;5057239;28;20978;-83
2022/08/08 01:22:30;;;;;;;12.20;1.83;;;15.40;91.40;;;;;;5057697;28;20926;-83
2022/08/08 01:25:18;;;;;;;1.10;1.00;;;15.30;91.20;;;;;;5058609;28;20415;-83
2022/08/08 01:27:56;;;;;;;1.90;1.80;;;15.30;91.10;;;;;;5057981;28;20417;-83
2022/08/08 01:30:52;;;;;;;1.60;1.50;;;15.30;91.40;;;;;;5057563;28;20852;-83
2022/08/08 01:33:57;;;;;;;1.73;1.67;;;15.30;91.20;;;;;;5058051;28;20433;-83
2022/08/08 01:36:46;;;;;;;2.07;1.70;;;15.20;91.00;;;;;;5062924;28;20483;-83
2022/08/08 01:39:18;;;;;;;1.50;1.40;;;15.20;91.00;;;;;;5058467;28;21151;-83
2022/08/08 01:41:56;;;;;;;1.50;1.20;;;15.20;91.20;;;;;;5058096;28;20410;-83
2022/08/08 01:44:53;;;;;;;2.10;1.80;;;15.10;91.40;;;;;;5058094;28;20417;-83
2022/08/08 01:47:21;;;;;;;1.53;1.30;;;15.10;91.20;;;;;;5065562;28;20421;-83
2022/08/08 01:50:14;;;;;;;1.33;1.30;;;15.10;91.40;;;;;;5058319;28;20448;-83
2022/08/08 01:53:02;;;;;;;1.67;1.57;;;15.10;91.10;;;;;;5058078;28;20414;-84
2022/08/08 01:55:55;;;;;;;4.10;1.53;;;15.00;91.30;;;;;;5057460;28;20422;-83
2022/08/08 01:58:40;;;;;;;1.17;1.17;;;15.00;91.50;;;;;;5057131;28;20471;-83
2022/08/08 02:01:14;;;;;;;1.57;1.40;;;15.00;91.50;;;;;;5057539;28;20448;-84
2022/08/08 02:03:40;;;;;;;1.40;1.33;;;15.00;91.60;;;;;;5055566;28;20409;-83
2022/08/08 02:06:24;;;;;;;1.53;1.43;;;15.00;91.60;;;;;;5056834;28;20490;-84
2022/08/08 02:09:07;;;;;;;1.30;1.20;;;14.90;91.50;;;;;;5064300;28;20205;-83
2022/08/08 02:11:40;;;;;;;1.40;1.30;;;14.90;91.70;;;;;;5074744;28;20505;-82
2022/08/08 02:14:43;;;;;;;1.67;1.63;;;14.80;92.00;;;;;;5056744;28;20424;-83
2022/08/08 02:17:17;;;;;;;1.57;1.17;;;14.80;92.10;;;;;;5057259;28;20413;-83
2022/08/08 02:19:59;;;;;;;4.93;2.00;;;14.70;92.40;;;;;;5057742;28;20453;-83
2022/08/08 02:22:31;;;;;;;1.33;1.23;;;14.70;92.60;;;;;;5056886;28;20409;-83
2022/08/08 02:25:06;;;;;;;2.30;1.97;;;14.60;92.90;;;;;;5057384;28;20501;-83
2022/08/08 02:27:46;;;;;;;2.20;2.00;;;14.60;93.10;;;;;;5056895;28;20414;-83
2022/08/08 02:30:41;;;;;;;6.93;2.50;;;14.60;93.20;;;;;;5056960;28;20445;-83
2022/08/08 02:33:55;;;;;;;1.80;1.70;;;14.50;93.30;;;;;;5041045;28;20428;-83
2022/08/08 02:37:04;;;;;;;1.57;1.57;;;14.50;93.80;;;;;;5056228;28;20422;-83
2022/08/08 02:39:44;;;;;;;1.97;1.53;;;14.40;94.30;;;;;;5060262;28;20978;-83
2022/08/08 02:42:29;;;;;;;1.17;1.10;;;14.40;94.30;;;;;;5060714;28;20415;-83
2022/08/08 02:45:32;;;;;;;2.73;2.30;;;14.30;94.30;;;;;;5059428;28;20418;-83
2022/08/08 02:48:00;;;;;;;8.20;2.43;;;14.20;94.50;;;;;;5054795;28;21018;-83
2022/08/08 02:51:04;;;;;;;2.80;1.40;;;14.20;94.70;;;;;;5057930;28;20425;-83
2022/08/08 02:53:58;;;;;;;1.73;1.70;;;14.10;94.60;;;;;;5046901;28;20471;-83
2022/08/08 02:57:00;;;;;;;1.50;1.40;;;14.10;94.80;;;;;;5056035;28;20430;-83
2022/08/08 02:59:49;;;;;;;3.00;2.03;;;14.00;95.00;;;;;;5055159;28;20860;-83
2022/08/08 03:03:13;;;;;;;1.87;1.67;;;14.00;95.30;;;;;;5056037;28;20782;-83
2022/08/08 03:06:09;;;;;;;4.77;2.73;;;14.00;95.10;;;;;;4942444;28;20433;-83
2022/08/08 03:08:59;;;;;;;2.73;1.70;;;13.90;95.20;;;;;;4971853;28;20500;-83
2022/08/08 03:11:39;;;;;;;1.70;1.60;;;13.90;95.20;;;;;;5043892;28;20426;-83
2022/08/08 03:14:43;;;;;;;1.40;1.17;;;13.90;95.50;;;;;;5054940;28;20859;-83
2022/08/08 03:17:31;;;;;;;1.93;1.53;;;13.80;95.70;;;;;;5055165;28;20405;-83
2022/08/08 03:20:20;;;;;;;1.83;1.73;;;13.80;95.90;;;;;;5038734;28;20465;-83
2022/08/08 03:22:50;;;;;;;2.27;1.80;;;13.70;95.80;;;;;;5072803;28;20421;-83
2022/08/08 03:25:19;;;;;;;2.00;1.50;;;13.70;95.70;;;;;;5055947;28;20499;-83
2022/08/08 03:27:58;;;;;;;2.50;2.30;;;13.70;95.80;;;;;;5055414;28;20409;-83
2022/08/08 03:30:25;;;;;;;1.20;1.13;;;13.70;95.80;;;;;;5056009;28;20504;-83
2022/08/08 03:35:39;;;;;;;1.97;1.67;;;13.60;95.90;;;;;;5063956;28;20975;-82
2022/08/08 03:38:05;;;;;;;2.47;1.90;;;13.60;96.00;;;;;;5054335;28;20531;-83
2022/08/08 03:40:31;;;;;;;1.83;1.57;;;13.60;96.00;;;;;;5073893;28;20414;-83
2022/08/08 03:42:59;;;;;;;1.60;1.50;;;13.60;96.10;;;;;;5055614;28;20801;-83
2022/08/08 03:45:27;;;;;;;1.30;1.20;;;13.60;96.20;;;;;;5055641;28;20440;-83
2022/08/08 03:50:25;;;;;;;2.07;1.50;;;13.50;96.40;;;;;;5086511;28;20533;-86
2022/08/08 03:52:52;;;;;;;1.70;1.60;;;13.40;96.40;;;;;;5078166;28;20402;-86
2022/08/08 03:55:19;;;;;;;1.90;1.80;;;13.40;96.50;;;;;;5074428;28;20950;-87
2022/08/08 03:57:52;;;;;;;1.53;1.43;;;13.40;96.60;;;;;;5059414;28;20404;-86
2022/08/08 04:00:19;;;;;;;2.00;1.83;;;13.40;96.80;;;;;;5060030;28;20445;-86
2022/08/08 04:03:03;;;;;;;2.17;1.70;;;13.40;97.30;;;;;;5059797;28;20463;-86
2022/08/08 04:05:34;;;;;;;1.50;1.40;;;13.30;97.00;;;;;;5060036;28;20402;-87
2022/08/08 04:08:01;;;;;;;1.50;1.40;;;13.30;97.00;;;;;;5055510;28;20502;-87
2022/08/08 04:10:28;;;;;;;4.10;3.30;;;13.30;97.10;;;;;;5041251;28;20425;-87
2022/08/08 04:12:54;;;;;;;1.63;1.60;;;13.30;97.30;;;;;;5075790;28;20492;-87
2022/08/08 04:15:20;;;;;;;2.60;2.03;;;13.20;97.30;;;;;;5047141;28;20938;-86
2022/08/08 04:17:46;;;;;;;1.73;1.63;;;13.20;97.30;;;;;;5039590;28;20414;-87
2022/08/08 04:20:12;;;;;;;2.33;1.77;;;13.10;97.30;;;;;;5039293;28;20799;-87
2022/08/08 04:22:37;;;;;;;8.30;1.97;;;13.20;97.30;;;;;;5033804;28;20459;-88
2022/08/08 04:25:04;;;;;;;2.00;1.53;;;13.20;97.30;;;;;;5050798;28;20579;-87
2022/08/08 04:27:30;;;;;;;1.33;1.23;;;13.20;97.30;;;;;;5039210;28;20180;-87
2022/08/08 04:29:56;;;;;;;1.90;1.80;;;13.10;97.30;;;;;;5035445;28;20470;-86
2022/08/08 04:32:22;;;;;;;1.97;1.90;;;13.10;97.30;;;;;;5035668;28;20435;-86
2022/08/08 04:34:47;;;;;;;2.20;2.10;;;13.10;97.30;;;;;;5036364;28;20194;-86
2022/08/08 04:37:13;;;;;;;1.90;1.87;;;13.20;97.30;;;;;;5040081;28;20595;-86
2022/08/08 04:39:42;;;;;;;1.53;1.40;;;13.20;97.30;;;;;;5043441;28;20206;-87
2022/08/08 04:42:08;;;;;;;7.07;2.53;;;13.30;97.30;;;;;;5047638;28;20596;-87
2022/08/08 04:44:34;;;;;;;2.40;2.07;;;13.30;97.30;;;;;;5040037;28;20484;-87
2022/08/08 04:47:01;;;;;;;1.63;1.47;;;13.40;97.30;;;;;;5029345;28;20259;-88
2022/08/08 04:49:26;;;;;;;2.63;1.83;;;13.40;97.30;;;;;;5040184;28;20518;-87
2022/08/08 04:51:52;;;;;;;1.80;1.73;;;13.40;97.30;;;;;;5057065;28;20813;-87
2022/08/08 04:54:17;;;;;;;1.33;1.27;;;13.50;97.30;;;;;;5068681;28;20212;-87
2022/08/08 04:56:43;;;;;;;1.70;1.40;;;13.50;97.30;;;;;;5034831;28;20238;-87
2022/08/08 04:59:09;;;;;;;1.87;1.80;;;13.50;97.30;;;;;;5050569;28;20223;-87
2022/08/08 05:01:35;;;;;;;2.23;1.70;;;13.60;97.30;;;;;;5047620;28;20258;-87
2022/08/08 05:04:01;;;;;;;3.23;2.20;;;13.60;97.30;;;;;;5055527;28;20172;-87
2022/08/08 05:06:27;;;;;;;1.63;1.53;;;13.70;97.30;;;;;;5075040;28;20408;-87
2022/08/08 05:08:53;;;;;;;1.93;1.70;;;13.70;97.30;;;;;;5042781;28;20201;-87
2022/08/08 05:11:20;;;;;;;2.63;2.07;;;13.70;97.30;;;;;;5045112;28;20649;-87
2022/08/08 05:13:45;;;;;;;1.93;1.83;;;13.70;97.30;;;;;;5028369;28;20871;-87
2022/08/08 05:16:11;;;;;;;2.30;2.03;;;13.80;97.30;;;;;;5045384;28;20450;-89
2022/08/08 05:18:36;;;;;;;2.20;1.70;;;13.80;97.30;;;;;;5041650;28;20223;-87
2022/08/08 05:21:07;;;;;;;2.10;1.97;;;13.90;97.30;;;;;;5051444;28;20182;-87
2022/08/08 05:23:33;;;;;;;2.00;1.70;;;13.90;97.30;;;;;;5044954;28;20171;-87
2022/08/08 05:25:59;;;;;;;3.10;1.60;;;14.00;97.30;;;;;;5044887;28;20441;-87
2022/08/08 05:28:24;;;;;;;3.23;2.30;;;14.00;97.30;;;;;;5028103;28;20499;-87
2022/08/08 05:30:50;;;;;;;3.10;1.50;;;14.10;97.30;;;;;;5021019;28;20184;-88
2022/08/08 05:33:16;;;;;;;3.17;2.67;;;14.10;97.30;;;;;;5025726;28;20184;-88
2022/08/08 05:35:43;;;;;;;1.73;1.40;;;14.20;97.30;;;;;;5038642;28;20421;-87
2022/08/08 05:38:15;;;;;;;1.63;1.53;;;14.20;97.30;;;;;;5061010;28;20183;-88
2022/08/08 05:40:49;;;;;;;1.57;1.10;;;14.30;97.30;;;;;;5029312;28;20462;-87
2022/08/08 05:43:30;;;;;;;3.10;1.90;;;14.30;97.30;;;;;;5016244;28;20434;-88
2022/08/08 05:45:58;;;;;;;1.63;1.53;;;14.40;97.30;;;;;;5016571;28;20419;-87
2022/08/08 05:48:24;;;;;;;2.30;2.10;;;14.40;97.30;;;;;;5012896;28;21308;-87
2022/08/08 05:50:50;;;;;;;1.47;1.37;;;14.50;97.30;;;;;;5013269;28;20514;-87
2022/08/08 05:53:27;;;;;;;1.57;1.47;;;14.50;97.30;;;;;;5003350;28;20230;-87
2022/08/08 05:55:55;;;;;;;1.57;1.30;;;14.60;97.30;;;;;;5032871;28;20484;-87
2022/08/08 05:58:32;;;;;;;2.20;2.10;;;14.70;97.30;;;;;;5031276;28;20975;-87
2022/08/08 06:01:01;;;;;;;1.60;1.50;;;14.80;97.30;;;;;;5034133;28;21016;-87
2022/08/08 06:03:29;;;;;;;1.23;1.13;;;14.80;97.30;;;;;;5010422;28;20418;-87
2022/08/08 06:06:06;;;;;;;1.30;1.20;;;14.90;97.30;;;;;;5035362;28;20417;-87
2022/08/08 06:08:49;;;;;;;1.60;1.50;;;14.90;97.30;;;;;;5016165;28;20458;-87
2022/08/08 06:11:15;;;;;;;2.00;1.90;;;15.00;97.30;;;;;;5033568;28;20410;-87
2022/08/08 06:13:40;;;;;;;1.67;1.57;;;15.10;97.30;;;;;;5032467;28;20427;-88
2022/08/08 06:16:11;;;;;;;1.50;1.40;;;15.20;97.30;;;;;;5033734;28;20709;-87
2022/08/08 06:18:40;;;;;;;1.50;1.40;;;15.20;97.10;;;;;;5020776;28;20315;-87
2022/08/08 06:21:07;;;;;;;1.47;1.37;;;15.30;96.80;;;;;;4996653;28;20427;-87
2022/08/08 06:23:33;;;;;;;1.60;1.50;;;15.40;96.40;;;;;;5024229;28;20426;-88
2022/08/08 06:26:05;;;;;;;5.80;3.07;;;15.40;96.10;;;;;;5036087;28;20421;-88
2022/08/08 06:28:36;;;;;;;1.50;1.40;;;15.50;95.80;;;;;;5035285;28;20200;-87
2022/08/08 06:31:04;;;;;;;1.33;1.33;;;15.60;95.30;;;;;;5036215;28;20413;-87
2022/08/08 06:34:00;;;;;;;2.00;1.93;;;15.60;95.00;;;;;;5031427;28;20438;-87
2022/08/08 06:36:34;;;;;;;1.60;1.37;;;15.70;94.30;;;;;;5025538;28;20423;-87
2022/08/08 06:39:02;;;;;;;1.10;1.10;;;15.80;93.80;;;;;;5022939;28;20458;-87
2022/08/08 06:41:31;;;;;;;1.37;1.33;;;15.90;93.50;;;;;;5035591;28;20410;-87
2022/08/08 06:44:01;;;;;;;5.63;1.70;;;16.00;93.40;;;;;;5035457;28;20418;-87
2022/08/08 06:46:27;;;;;;;1.27;1.27;;;16.10;93.20;;;;;;5034856;28;20413;-87
2022/08/08 06:48:54;;;;;;;1.07;1.03;;;16.20;93.30;;;;;;5031975;28;20765;-87
2022/08/08 06:51:20;;;;;;;1.53;1.43;;;16.30;93.20;;;;;;5049086;28;20774;-87
2022/08/08 06:53:46;;;;;;;1.80;1.70;;;16.40;93.30;;;;;;5035720;28;20425;-87
2022/08/08 06:56:12;;;;;;;1.83;1.60;;;16.50;93.00;;;;;;5034779;28;20179;-88
2022/08/08 06:58:38;;;;;;;1.23;1.13;;;16.60;93.00;;;;;;5031590;28;20455;-87
2022/08/08 07:01:05;;;;;;;10.20;1.50;;;16.80;92.40;;;;;;5004000;28;20451;-90
2022/08/08 07:03:57;;;;;;;1.20;1.20;;;16.80;92.30;;;;;;5032065;28;20329;-86
2022/08/08 07:06:24;;;;;;;1.37;1.30;;;17.00;92.30;;;;;;5035176;28;20418;-86
2022/08/08 07:08:57;;;;;;;2.80;1.53;;;17.10;92.40;;;;;;5028635;28;20444;-86
2022/08/08 07:11:27;;;;;;;3.90;2.00;;;17.30;92.30;;;;;;5012310;28;21056;-86
2022/08/08 07:13:58;;;;;;;1.80;1.70;;;17.50;92.10;;;;;;5033007;28;20411;-86
2022/08/08 07:16:45;;;;;;;1.70;1.60;;;17.60;91.40;;;;;;5034758;28;20427;-86
2022/08/08 07:19:16;;;;;;;3.63;1.97;;;17.70;90.90;;;;;;5018039;28;20984;-86
2022/08/08 07:21:54;;;;;;;1.83;1.77;;;17.80;90.80;;;;;;5015706;28;20473;-86
2022/08/08 07:24:33;;;;;;;0.97;0.93;;;18.00;90.30;;;;;;5033326;28;20438;-86
2022/08/08 07:26:59;;;;;;;2.20;1.77;;;18.10;90.20;;;;;;5030953;28;20543;-87
2022/08/08 07:29:26;;;;;;;1.30;1.20;;;18.20;90.30;;;;;;5036077;28;20832;-86
2022/08/08 07:31:51;;;;;;;1.57;1.27;;;18.30;90.60;;;;;;5019595;28;20840;-86
2022/08/08 07:34:17;;;;;;;1.80;1.40;;;18.50;90.80;;;;;;5049565;28;20453;-86
2022/08/08 07:36:45;;;;;;;1.70;1.63;;;18.60;90.60;;;;;;5036219;28;20208;-86
2022/08/08 07:39:11;;;;;;;1.10;1.00;;;18.70;90.10;;;;;;5019684;28;20509;-87
2022/08/08 07:41:41;;;;;;;2.10;1.40;;;18.80;89.70;;;;;;5029304;28;20418;-86
2022/08/08 07:44:08;;;;;;;1.50;1.40;;;19.00;89.20;;;;;;5032491;28;20186;-86
2022/08/08 07:46:33;;;;;;;1.57;1.47;;;19.10;88.30;;;;;;5047408;28;20410;-86
2022/08/08 07:48:59;;;;;;;1.47;1.40;;;19.30;87.60;;;;;;5053161;28;20458;-87
2022/08/08 07:51:25;;;;;;;1.40;1.30;;;19.40;88.20;;;;;;5022287;28;20172;-86
2022/08/08 07:54:15;;;;;;;1.13;1.07;;;19.60;87.30;;;;;;5034714;28;20674;-87
2022/08/08 07:57:15;;;;;;;1.57;1.27;;;19.70;86.30;;;;;;5034851;28;20180;-87
2022/08/08 08:00:05;;;;;;;1.50;1.40;;;19.90;85.30;;;;;;5034644;28;21006;-86
2022/08/08 08:02:57;;;;;;;5.90;2.80;;;20.10;85.10;;;;;;5035343;28;20430;-86
2022/08/08 08:05:25;;;;;;;1.00;0.90;;;20.20;85.20;;;;;;5034793;28;20417;-86
2022/08/08 08:08:01;;;;;;;2.30;2.10;;;20.40;85.00;;;;;;5045772;28;20468;-86
2022/08/08 08:10:27;;;;;;;1.60;1.23;;;20.50;84.60;;;;;;5053660;28;20461;-87
2022/08/08 08:13:19;;;;;;;2.17;1.30;;;20.70;84.20;;;;;;5041901;28;20904;-86
2022/08/08 08:15:48;;;;;;;2.50;2.10;;;20.80;83.40;;;;;;5041034;28;20406;-88
2022/08/08 08:18:15;;;;;;;2.33;1.70;;;21.00;82.50;;;;;;5045448;28;20452;-86
2022/08/08 08:20:41;;;;;;;1.40;1.33;;;21.10;82.10;;;;;;5046762;28;20418;-87
2022/08/08 08:23:07;;;;;;;1.40;1.30;;;21.10;82.10;;;;;;5041678;28;20467;-87
2022/08/08 08:25:32;;;;;;;1.20;1.20;;;21.20;82.00;;;;;;5040168;28;20176;-86
2022/08/08 08:27:58;;;;;;;0.80;0.80;;;21.30;81.60;;;;;;5044354;28;20649;-86
2022/08/08 08:30:26;;;;;;;2.07;1.70;;;21.30;80.30;;;;;;5033618;28;20637;-87
2022/08/08 08:32:52;;;;;;;3.10;2.33;;;21.40;80.10;;;;;;5033713;28;20172;-86
2022/08/08 08:35:18;;;;;;;1.50;1.40;;;21.50;79.70;;;;;;5033417;28;20942;-88
2022/08/08 08:37:44;;;;;;;1.10;1.00;;;21.60;79.50;;;;;;5024613;28;20928;-88
2022/08/08 08:40:12;;;;;;;1.40;1.30;;;21.60;78.80;;;;;;5040888;28;20517;-87
2022/08/08 08:42:39;;;;;;;1.10;1.00;;;21.70;79.30;;;;;;5035670;28;20611;-87
2022/08/08 08:45:05;;;;;;;1.60;1.50;;;21.80;79.00;;;;;;5040340;28;20502;-87
2022/08/08 08:47:33;;;;;;;1.17;1.13;;;21.90;78.90;;;;;;5034427;28;20413;-86
2022/08/08 08:49:59;;;;;;;2.60;1.47;;;22.10;78.40;;;;;;5043974;28;20492;-87
2022/08/08 08:52:25;;;;;;;1.60;1.50;;;22.20;77.70;;;;;;5055541;28;20421;-87
2022/08/08 08:54:55;;;;;;;1.30;1.10;;;22.30;77.90;;;;;;5040344;28;20179;-87
2022/08/08 08:57:22;;;;;;;1.10;1.00;;;22.40;77.30;;;;;;5043993;28;20979;-87
2022/08/08 08:59:52;;;;;;;1.40;1.30;;;22.50;76.80;;;;;;5051900;28;20454;-87
2022/08/08 09:02:23;;;;;;;1.57;1.30;;;22.70;76.80;;;;;;5036684;28;20990;-86
2022/08/08 09:04:54;;;;;;;1.00;1.00;;;22.80;77.90;;;;;;5037318;28;21103;-87
2022/08/08 09:07:22;;;;;;;1.83;1.70;;;22.90;76.50;;;;;;5035740;28;21120;-87
2022/08/08 09:09:51;;;;;;;2.23;1.10;;;23.10;76.50;;;;;;5035976;28;20441;-87
2022/08/08 09:12:19;;;;;;;2.00;1.80;;;23.20;76.70;;;;;;5023264;28;20434;-88
2022/08/08 09:14:46;;;;;;;1.77;1.10;;;23.40;74.90;;;;;;5029375;28;20427;-87
2022/08/08 09:17:12;;;;;;;1.00;0.90;;;23.50;74.50;;;;;;5040967;28;20417;-87
2022/08/08 09:19:39;;;;;;;1.70;1.50;;;23.60;74.20;;;;;;5052948;28;20454;-87
2022/08/08 09:22:06;;;;;;;9.47;3.27;;;23.70;74.20;;;;;;5047825;28;20414;-88
2022/08/08 09:24:34;;;;;;;2.83;1.53;;;23.80;72.60;;;;;;5048062;28;20421;-87
2022/08/08 09:27:05;;;;;;;1.90;1.83;;;23.90;72.00;;;;;;5034943;28;20454;-87
2022/08/08 09:29:47;;;;;;;1.27;1.27;;;24.00;72.20;;;;;;5029704;28;20429;-87
2022/08/08 09:32:36;;;;;;;1.47;1.27;;;24.00;71.70;;;;;;5040670;28;20429;-87
2022/08/08 09:35:06;;;;;;;1.60;1.50;;;24.10;72.00;;;;;;5042201;28;20414;-88
2022/08/08 09:37:43;;;;;;;1.40;1.33;;;24.20;71.50;;;;;;5047977;28;20473;-87
2022/08/08 09:40:11;;;;;;;3.03;1.20;;;24.20;71.50;;;;;;5035165;28;20465;-87
2022/08/08 09:42:45;;;;;;;2.33;1.53;;;24.30;71.80;;;;;;5035330;28;20426;-88
2022/08/08 09:45:25;;;;;;;3.03;1.47;;;24.50;72.10;;;;;;5035732;28;20407;-87
2022/08/08 09:47:52;;;;;;;1.53;1.47;;;24.60;71.40;;;;;;5035490;28;20410;-87
2022/08/08 09:50:20;;;;;;;2.70;1.30;;;24.80;71.50;;;;;;5035424;28;20458;-87
2022/08/08 09:55:31;;;;;;;2.80;1.83;;;25.00;71.00;;;;;;5074131;28;20484;-78
2022/08/08 09:58:05;;;;;;;1.63;1.53;;;25.10;71.20;;;;;;5071854;28;20412;-78
2022/08/08 10:00:34;;;;;;;2.00;1.90;;;25.20;70.50;;;;;;5065768;28;20175;-79
2022/08/08 10:03:03;;;;;;;1.20;1.10;;;25.30;70.40;;;;;;5081100;28;20413;-78
2022/08/08 10:05:34;;;;;;;3.10;1.50;;;25.50;70.20;;;;;;5068359;28;20508;-78
2022/08/08 10:08:01;;;;;;;1.97;1.63;;;25.60;70.20;;;;;;5063030;28;20900;-78
2022/08/08 10:10:37;;;;;;;1.20;1.10;;;25.60;69.20;;;;;;5051300;28;20429;-78
2022/08/08 10:13:25;;;;;;;2.20;1.33;;;25.60;68.40;;;;;;5062464;28;20416;-78
2022/08/08 10:15:53;;;;;;;1.27;1.13;;;25.60;67.30;;;;;;5075239;28;20510;-79
2022/08/08 10:18:33;;;;;;;1.20;1.00;;;25.50;67.00;;;;;;5063201;28;20456;-78
2022/08/08 10:21:10;;;;;;;2.53;1.87;;;25.50;68.40;;;;;;5060747;28;20470;-79
2022/08/08 10:23:49;;;;;;;1.50;1.40;;;25.60;69.50;;;;;;5061964;28;20808;-78
2022/08/08 10:26:24;;;;;;;0.93;0.83;;;25.70;67.40;;;;;;5082893;28;20498;-78
2022/08/08 10:28:55;;;;;;;2.30;2.03;;;25.70;67.10;;;;;;5081088;28;20447;-78
2022/08/08 10:34:18;;;;;;;1.57;1.47;;;25.70;68.10;;;;;;5073986;28;20432;-80
2022/08/08 10:36:45;;;;;;;1.00;0.90;;;25.70;67.60;;;;;;5067457;28;20432;-80
2022/08/08 10:39:38;;;;;;;1.90;1.43;;;25.60;67.80;;;;;;5058137;28;20826;-80
2022/08/08 10:42:04;;;;;;;1.40;1.23;;;25.50;67.80;;;;;;5063701;28;20432;-79
2022/08/08 10:44:39;;;;;;;1.20;1.10;;;25.40;69.10;;;;;;5074837;28;20519;-79
2022/08/08 10:47:17;;;;;;;1.77;1.33;;;25.50;69.30;;;;;;5062846;28;20413;-79
2022/08/08 10:49:55;;;;;;;1.30;1.20;;;25.60;69.60;;;;;;5067164;28;20972;-80
2022/08/08 10:52:33;;;;;;;1.33;1.23;;;25.80;68.90;;;;;;5069079;28;20421;-79
2022/08/08 10:55:01;;;;;;;1.10;1.00;;;25.90;68.50;;;;;;5056737;28;20522;-79
2022/08/08 10:57:27;;;;;;;1.97;1.00;;;26.10;68.50;;;;;;5057209;28;20483;-79
2022/08/08 10:59:55;;;;;;;1.63;1.47;;;26.20;68.10;;;;;;5067884;28;20464;-79
2022/08/08 11:02:30;;;;;;;1.43;1.37;;;26.40;67.00;;;;;;5056483;28;20187;-79
2022/08/08 11:04:58;;;;;;;1.00;0.90;;;26.40;67.10;;;;;;5055738;28;20421;-79
2022/08/08 11:07:24;;;;;;;2.03;1.23;;;26.50;66.20;;;;;;5062671;28;20979;-79
2022/08/08 11:09:50;;;;;;;1.80;1.07;;;26.50;66.60;;;;;;5056778;28;20445;-80
2022/08/08 11:12:15;;;;;;;1.37;1.37;;;26.60;66.30;;;;;;5063124;28;20417;-79
2022/08/08 11:14:56;;;;;;;1.27;1.17;;;26.60;64.60;;;;;;5075371;28;20619;-80
2022/08/08 11:17:30;;;;;;;1.30;1.20;;;26.60;65.10;;;;;;5053685;28;20178;-80
2022/08/08 11:19:57;;;;;;;3.77;1.00;;;26.50;65.50;;;;;;5079137;28;20467;-79
2022/08/08 11:22:31;;;;;;;1.07;1.00;;;26.70;67.00;;;;;;5093588;28;20918;-79
2022/08/08 11:25:02;;;;;;;1.13;1.07;;;26.80;66.30;;;;;;5070913;28;20418;-80
2022/08/08 11:27:35;;;;;;;1.63;1.30;;;27.00;66.90;;;;;;5068381;28;20417;-80
2022/08/08 11:30:04;;;;;;;1.20;1.10;;;27.10;65.20;;;;;;5061991;28;20472;-79
2022/08/08 11:32:30;;;;;;;2.10;1.10;;;27.10;65.40;;;;;;5074448;28;20420;-79
2022/08/08 11:35:13;;;;;;;1.47;1.37;;;27.20;65.70;;;;;;5068764;28;20910;-79
2022/08/08 11:37:41;;;;;;;1.13;1.03;;;27.20;66.10;;;;;;5055096;28;20915;-79
2022/08/08 11:40:09;;;;;;;3.13;1.63;;;27.40;65.40;;;;;;5064965;28;20464;-79
2022/08/08 11:42:35;;;;;;;11.90;1.63;;;27.50;65.90;;;;;;5048922;28;20452;-79
2022/08/08 11:45:02;;;;;;;1.00;0.90;;;27.60;64.50;;;;;;5065388;28;20421;-79
2022/08/08 11:47:28;;;;;;;1.17;1.03;;;27.60;64.40;;;;;;5071684;28;20486;-80
2022/08/08 11:49:58;;;;;;;1.10;1.03;;;27.60;64.30;;;;;;5065218;28;21020;-78
2022/08/08 11:52:24;;;;;;;0.90;0.80;;;27.40;64.00;;;;;;5059321;28;20413;-79
2022/08/08 11:54:50;;;;;;;1.73;1.10;;;27.20;64.20;;;;;;5075420;28;20476;-80
2022/08/08 11:57:16;;;;;;;1.33;1.10;;;27.00;63.80;;;;;;5058697;28;20421;-79
2022/08/08 11:59:46;;;;;;;1.53;1.10;;;27.00;64.10;;;;;;5073140;28;20460;-79
2022/08/08 12:02:12;;;;;;;1.40;1.30;;;26.90;62.90;;;;;;5055571;28;20269;-79
2022/08/08 12:04:38;;;;;;;1.03;0.97;;;26.90;64.10;;;;;;5055695;28;20444;-79
2022/08/08 12:07:05;;;;;;;1.37;1.27;;;27.00;64.10;;;;;;5068939;28;20171;-79
2022/08/08 12:09:31;;;;;;;1.73;1.30;;;27.20;65.70;;;;;;5063934;28;20826;-79
2022/08/08 12:11:57;;;;;;;1.10;1.00;;;27.40;65.00;;;;;;5072373;28;20421;-80
2022/08/08 12:14:23;;;;;;;1.30;1.20;;;27.40;65.70;;;;;;5063538;28;20652;-79
2022/08/08 12:16:51;;;;;;;3.00;1.70;;;27.50;65.90;;;;;;5068098;28;20179;-79
2022/08/08 12:19:19;;;;;;;2.97;1.60;;;27.70;65.10;;;;;;5070413;28;20548;-79
2022/08/08 12:21:45;;;;;;;3.63;2.27;;;27.90;64.30;;;;;;5077937;28;20777;-79
2022/08/08 12:24:13;;;;;;;1.23;1.10;;;28.10;63.30;;;;;;5070624;28;20412;-80
2022/08/08 12:26:52;;;;;;;1.50;1.40;;;28.20;63.40;;;;;;5064367;28;20555;-79
2022/08/08 12:29:27;;;;;;;0.97;0.90;;;28.40;63.70;;;;;;5064819;28;20475;-80
2022/08/08 12:32:01;;;;;;;1.00;0.90;;;28.60;63.90;;;;;;5085377;28;20416;-80
2022/08/08 12:34:50;;;;;;;1.17;1.07;;;28.70;62.80;;;;;;5061804;28;20417;-79
2022/08/08 12:37:21;;;;;;;1.20;1.17;;;28.80;63.70;;;;;;5057843;28;20466;-79
2022/08/08 12:39:47;;;;;;;1.43;1.33;;;29.00;63.70;;;;;;5047070;28;20995;-79
2022/08/08 12:42:13;;;;;;;1.90;1.03;;;29.10;63.60;;;;;;5059042;28;20443;-79
2022/08/08 12:44:40;;;;;;;7.50;2.63;;;29.20;62.80;;;;;;5071159;28;20782;-79
2022/08/08 12:47:06;;;;;;;1.20;1.20;;;29.30;61.60;;;;;;5059574;28;20651;-80
2022/08/08 12:49:34;;;;;;;1.27;1.17;;;29.30;62.90;;;;;;5088595;28;20812;-79
2022/08/08 12:52:01;;;;;;;2.80;1.60;;;29.30;61.40;;;;;;5088954;28;20507;-79
2022/08/08 12:54:27;;;;;;;1.40;1.20;;;29.10;62.20;;;;;;5058372;28;20745;-79
2022/08/08 12:56:53;;;;;;;1.93;1.83;;;28.80;62.40;;;;;;5089825;28;20512;-80
2022/08/08 12:59:22;;;;;;;1.43;1.33;;;28.60;64.10;;;;;;5088244;28;20250;-79
2022/08/08 13:01:50;;;;;;;2.07;1.53;;;28.50;64.20;;;;;;5071779;28;20511;-80
2022/08/08 13:04:18;;;;;;;0.97;0.93;;;28.50;64.60;;;;;;5076183;28;20467;-79
2022/08/08 13:07:03;;;;;;;1.67;1.57;;;28.60;64.20;;;;;;5059726;28;20428;-79
2022/08/08 13:09:45;;;;;;;1.47;1.10;;;28.70;63.00;;;;;;5066956;28;20444;-79
2022/08/08 13:12:17;;;;;;;1.37;1.27;;;28.80;62.50;;;;;;5070517;28;20429;-79
2022/08/08 13:14:48;;;;;;;1.60;1.17;;;28.90;61.70;;;;;;5070684;28;20475;-80
2022/08/08 13:17:15;;;;;;;1.30;1.20;;;29.00;61.70;;;;;;5083109;28;20810;-79
2022/08/08 13:19:44;;;;;;;1.90;1.53;;;29.00;61.70;;;;;;5061288;28;20460;-78
2022/08/08 13:22:14;;;;;;;1.20;1.10;;;29.10;61.70;;;;;;5054450;28;20416;-79
2022/08/08 13:24:40;;;;;;;1.23;1.17;;;29.30;61.20;;;;;;5076431;28;20455;-79
2022/08/08 13:27:28;;;;;;;2.57;1.00;;;29.40;61.40;;;;;;5076926;28;20424;-80
2022/08/08 13:29:56;;;;;;;1.10;0.90;;;29.70;61.10;;;;;;5075115;28;20366;-79